sensor_id;sensor_type;location;lat;lon;timestamp;temperature;humidity
9980;DHT22;5030;51.532;6.766;2022-11-04T00:01:40;10.80;99.90
9980;DHT22;5030;51.532;6.766;2022-11-04T00:04:07;10.80;99.90
9980;DHT22;5030;51.532;6.766;2022-11-04T00:06:33;10.70;99.90
9980;DHT22;5030;51.532;6.766;2022-11-04T00:08:59;10.80;99.90
9980;DHT22;5030;51.532;6.766;2022-11-04T00:11:26;10.70;99.90
9980;DHT22;5030;51.532;6.766;2022-11-04T00:14:11;10.70;99.90
9980;DHT22;5030;51.532;6.766;2022-11-04T00:16:37;10.70;99.90
9980;DHT22;5030;51.532;6.766;2022-11-04T00:19:34;10.60;99.90
9980;DHT22;5030;51.532;6.766;2022-11-04T00:22:19;10.50;99.90
9980;DHT22;5030;51.532;6.766;2022-11-04T00:25:04;10.50;99.90
9980;DHT22;5030;51.532;6.766;2022-11-04T00:27:48;10.60;99.90
9980;DHT22;5030;51.532;6.766;2022-11-04T00:30:32;10.50;99.90
9980;DHT22;5030;51.532;6.766;2022-11-04T00:32:58;10.50;99.90
9980;DHT22;5030;51.532;6.766;2022-11-04T00:35:49;10.60;99.90
9980;DHT22;5030;51.532;6.766;2022-11-04T00:38:16;10.70;99.90
9980;DHT22;5030;51.532;6.766;2022-11-04T00:40:42;10.70;99.90
9980;DHT22;5030;51.532;6.766;2022-11-04T00:43:07;10.60;99.90
9980;DHT22;5030;51.532;6.766;2022-11-04T00:45:34;10.70;99.90
9980;DHT22;5030;51.532;6.766;2022-11-04T00:48:00;10.60;99.90
9980;DHT22;5030;51.532;6.766;2022-11-04T00:50:26;10.70;99.90
9980;DHT22;5030;51.532;6.766;2022-11-04T00:52:56;10.70;99.90
9980;DHT22;5030;51.532;6.766;2022-11-04T00:55:22;10.60;99.90
9980;DHT22;5030;51.532;6.766;2022-11-04T00:57:48;10.60;99.90
9980;DHT22;5030;51.532;6.766;2022-11-04T01:00:14;10.60;99.90
9980;DHT22;5030;51.532;6.766;2022-11-04T01:02:39;10.50;99.90
9980;DHT22;5030;51.532;6.766;2022-11-04T01:05:05;10.50;99.90
9980;DHT22;5030;51.532;6.766;2022-11-04T01:07:31;10.50;99.90
9980;DHT22;5030;51.532;6.766;2022-11-04T01:09:56;10.40;99.90
9980;DHT22;5030;51.532;6.766;2022-11-04T01:12:22;10.30;99.90
9980;DHT22;5030;51.532;6.766;2022-11-04T01:14:48;10.30;99.90
9980;DHT22;5030;51.532;6.766;2022-11-04T01:17:15;10.20;99.90
9980;DHT22;5030;51.532;6.766;2022-11-04T01:19:42;10.20;99.90
9980;DHT22;5030;51.532;6.766;2022-11-04T01:22:07;10.30;99.90
9980;DHT22;5030;51.532;6.766;2022-11-04T01:24:34;10.30;99.90
9980;DHT22;5030;51.532;6.766;2022-11-04T01:27:00;10.30;99.90
9980;DHT22;5030;51.532;6.766;2022-11-04T01:29:25;10.30;99.90
9980;DHT22;5030;51.532;6.766;2022-11-04T01:31:51;10.40;99.90
9980;DHT22;5030;51.532;6.766;2022-11-04T01:34:17;10.40;99.90
9980;DHT22;5030;51.532;6.766;2022-11-04T01:36:42;10.40;99.90
9980;DHT22;5030;51.532;6.766;2022-11-04T01:39:10;10.50;99.90
9980;DHT22;5030;51.532;6.766;2022-11-04T01:41:37;10.50;99.90
9980;DHT22;5030;51.532;6.766;2022-11-04T01:50:20;10.40;99.90
9980;DHT22;5030;51.532;6.766;2022-11-04T01:52:49;10.50;99.90
9980;DHT22;5030;51.532;6.766;2022-11-04T01:55:46;10.50;99.90
9980;DHT22;5030;51.532;6.766;2022-11-04T01:58:17;10.50;99.90
9980;DHT22;5030;51.532;6.766;2022-11-04T02:00:43;10.50;99.90
9980;DHT22;5030;51.532;6.766;2022-11-04T02:03:42;10.40;99.90
9980;DHT22;5030;51.532;6.766;2022-11-04T02:06:10;10.40;99.90
9980;DHT22;5030;51.532;6.766;2022-11-04T02:08:37;10.30;99.90
9980;DHT22;5030;51.532;6.766;2022-11-04T02:11:03;10.20;99.90
9980;DHT22;5030;51.532;6.766;2022-11-04T02:13:31;10.20;99.90
9980;DHT22;5030;51.532;6.766;2022-11-04T02:16:27;10.10;99.90
9980;DHT22;5030;51.532;6.766;2022-11-04T02:29:58;10.10;99.90
9980;DHT22;5030;51.532;6.766;2022-11-04T02:32:45;10.10;99.90
9980;DHT22;5030;51.532;6.766;2022-11-04T02:39:10;10.10;99.90
9980;DHT22;5030;51.532;6.766;2022-11-04T02:44:32;10.00;99.90
9980;DHT22;5030;51.532;6.766;2022-11-04T02:49:40;10.10;99.90
9980;DHT22;5030;51.532;6.766;2022-11-04T02:52:15;10.00;99.90
9980;DHT22;5030;51.532;6.766;2022-11-04T02:54:46;10.00;99.90
9980;DHT22;5030;51.532;6.766;2022-11-04T02:59:53;10.00;99.90
9980;DHT22;5030;51.532;6.766;2022-11-04T03:02:32;10.00;99.90
9980;DHT22;5030;51.532;6.766;2022-11-04T03:04:59;10.00;99.90
9980;DHT22;5030;51.532;6.766;2022-11-04T03:07:30;10.00;99.90
9980;DHT22;5030;51.532;6.766;2022-11-04T03:10:01;10.00;99.90
9980;DHT22;5030;51.532;6.766;2022-11-04T03:12:33;10.00;99.90
9980;DHT22;5030;51.532;6.766;2022-11-04T03:15:06;10.00;99.90
9980;DHT22;5030;51.532;6.766;2022-11-04T03:17:56;10.00;99.90
9980;DHT22;5030;51.532;6.766;2022-11-04T03:20:26;10.00;99.90
9980;DHT22;5030;51.532;6.766;2022-11-04T03:22:54;9.90;99.90
9980;DHT22;5030;51.532;6.766;2022-11-04T03:25:27;9.90;99.90
9980;DHT22;5030;51.532;6.766;2022-11-04T03:28:05;9.90;99.90
9980;DHT22;5030;51.532;6.766;2022-11-04T03:30:42;9.80;99.90
9980;DHT22;5030;51.532;6.766;2022-11-04T03:33:24;9.80;99.90
9980;DHT22;5030;51.532;6.766;2022-11-04T03:35:51;9.80;99.90
9980;DHT22;5030;51.532;6.766;2022-11-04T03:38:20;9.90;99.90
9980;DHT22;5030;51.532;6.766;2022-11-04T03:40:46;9.90;99.90
9980;DHT22;5030;51.532;6.766;2022-11-04T03:43:21;9.80;99.90
9980;DHT22;5030;51.532;6.766;2022-11-04T03:45:49;9.80;99.90
9980;DHT22;5030;51.532;6.766;2022-11-04T03:48:16;9.60;99.90
9980;DHT22;5030;51.532;6.766;2022-11-04T03:50:44;9.50;99.90
9980;DHT22;5030;51.532;6.766;2022-11-04T03:53:12;9.50;99.90
9980;DHT22;5030;51.532;6.766;2022-11-04T04:04:29;9.50;99.90
9980;DHT22;5030;51.532;6.766;2022-11-04T04:09:44;9.40;99.90
9980;DHT22;5030;51.532;6.766;2022-11-04T04:12:25;9.50;99.90
9980;DHT22;5030;51.532;6.766;2022-11-04T04:14:56;9.30;99.90
9980;DHT22;5030;51.532;6.766;2022-11-04T04:17:31;9.40;99.90
9980;DHT22;5030;51.532;6.766;2022-11-04T04:20:08;9.30;99.90
9980;DHT22;5030;51.532;6.766;2022-11-04T04:22:40;9.20;99.90
9980;DHT22;5030;51.532;6.766;2022-11-04T04:25:09;9.30;99.90
9980;DHT22;5030;51.532;6.766;2022-11-04T04:27:57;9.20;99.90
9980;DHT22;5030;51.532;6.766;2022-11-04T04:30:24;9.30;99.90
9980;DHT22;5030;51.532;6.766;2022-11-04T04:32:59;9.20;99.90
9980;DHT22;5030;51.532;6.766;2022-11-04T04:35:30;9.20;99.90
9980;DHT22;5030;51.532;6.766;2022-11-04T04:38:24;9.20;99.90
9980;DHT22;5030;51.532;6.766;2022-11-04T04:41:29;9.10;99.90
9980;DHT22;5030;51.532;6.766;2022-11-04T04:44:18;9.00;99.90
9980;DHT22;5030;51.532;6.766;2022-11-04T04:47:05;9.00;99.90
9980;DHT22;5030;51.532;6.766;2022-11-04T04:49:32;9.00;99.90
9980;DHT22;5030;51.532;6.766;2022-11-04T04:52:01;9.10;99.90
9980;DHT22;5030;51.532;6.766;2022-11-04T04:54:27;9.10;99.90
9980;DHT22;5030;51.532;6.766;2022-11-04T04:56:53;9.10;99.90
9980;DHT22;5030;51.532;6.766;2022-11-04T04:59:18;8.90;99.90
9980;DHT22;5030;51.532;6.766;2022-11-04T05:01:44;8.80;99.90
9980;DHT22;5030;51.532;6.766;2022-11-04T05:04:12;8.80;99.90
9980;DHT22;5030;51.532;6.766;2022-11-04T05:06:38;8.60;99.90
9980;DHT22;5030;51.532;6.766;2022-11-04T05:09:04;8.60;99.90
9980;DHT22;5030;51.532;6.766;2022-11-04T05:11:29;8.60;99.90
9980;DHT22;5030;51.532;6.766;2022-11-04T05:13:55;8.60;99.90
9980;DHT22;5030;51.532;6.766;2022-11-04T05:16:21;8.60;99.90
9980;DHT22;5030;51.532;6.766;2022-11-04T05:18:46;8.50;99.90
9980;DHT22;5030;51.532;6.766;2022-11-04T05:21:14;8.50;99.90
9980;DHT22;5030;51.532;6.766;2022-11-04T05:23:41;8.50;99.90
9980;DHT22;5030;51.532;6.766;2022-11-04T05:26:06;8.40;99.90
9980;DHT22;5030;51.532;6.766;2022-11-04T05:28:32;8.40;99.90
9980;DHT22;5030;51.532;6.766;2022-11-04T05:31:02;8.30;99.90
9980;DHT22;5030;51.532;6.766;2022-11-04T05:33:29;8.30;99.90
9980;DHT22;5030;51.532;6.766;2022-11-04T05:35:54;8.20;99.90
9980;DHT22;5030;51.532;6.766;2022-11-04T05:38:29;8.10;99.90
9980;DHT22;5030;51.532;6.766;2022-11-04T05:40:56;8.10;99.90
9980;DHT22;5030;51.532;6.766;2022-11-04T05:43:22;8.30;99.90
9980;DHT22;5030;51.532;6.766;2022-11-04T05:45:48;8.40;99.90
9980;DHT22;5030;51.532;6.766;2022-11-04T05:48:13;8.40;99.90
9980;DHT22;5030;51.532;6.766;2022-11-04T05:50:40;8.60;99.90
9980;DHT22;5030;51.532;6.766;2022-11-04T05:53:06;8.60;99.90
9980;DHT22;5030;51.532;6.766;2022-11-04T05:55:32;8.50;99.90
9980;DHT22;5030;51.532;6.766;2022-11-04T05:57:57;8.50;99.90
9980;DHT22;5030;51.532;6.766;2022-11-04T06:00:24;8.50;99.90
9980;DHT22;5030;51.532;6.766;2022-11-04T06:02:50;8.50;99.90
9980;DHT22;5030;51.532;6.766;2022-11-04T06:05:16;8.50;99.90
9980;DHT22;5030;51.532;6.766;2022-11-04T06:07:42;8.70;99.90
9980;DHT22;5030;51.532;6.766;2022-11-04T06:10:07;8.70;99.90
9980;DHT22;5030;51.532;6.766;2022-11-04T06:12:33;8.70;99.90
9980;DHT22;5030;51.532;6.766;2022-11-04T06:14:59;8.80;99.90
9980;DHT22;5030;51.532;6.766;2022-11-04T06:17:25;8.80;99.90
9980;DHT22;5030;51.532;6.766;2022-11-04T06:19:51;8.90;99.90
9980;DHT22;5030;51.532;6.766;2022-11-04T06:22:18;9.00;99.90
9980;DHT22;5030;51.532;6.766;2022-11-04T06:24:44;9.10;99.90
9980;DHT22;5030;51.532;6.766;2022-11-04T06:27:11;9.10;99.90
9980;DHT22;5030;51.532;6.766;2022-11-04T06:29:37;9.20;99.90
9980;DHT22;5030;51.532;6.766;2022-11-04T06:32:10;9.20;99.90
9980;DHT22;5030;51.532;6.766;2022-11-04T06:34:36;9.20;99.90
9980;DHT22;5030;51.532;6.766;2022-11-04T06:37:02;9.30;99.90
9980;DHT22;5030;51.532;6.766;2022-11-04T06:39:29;9.30;99.90
9980;DHT22;5030;51.532;6.766;2022-11-04T06:41:55;9.40;99.90
9980;DHT22;5030;51.532;6.766;2022-11-04T06:44:21;9.40;99.90
9980;DHT22;5030;51.532;6.766;2022-11-04T06:46:47;9.40;99.90
9980;DHT22;5030;51.532;6.766;2022-11-04T06:49:16;9.40;99.90
9980;DHT22;5030;51.532;6.766;2022-11-04T06:51:48;9.40;99.90
9980;DHT22;5030;51.532;6.766;2022-11-04T06:54:14;9.40;99.90
9980;DHT22;5030;51.532;6.766;2022-11-04T06:56:41;9.40;99.90
9980;DHT22;5030;51.532;6.766;2022-11-04T06:59:07;9.50;99.90
9980;DHT22;5030;51.532;6.766;2022-11-04T07:01:34;9.40;99.90
9980;DHT22;5030;51.532;6.766;2022-11-04T07:04:02;9.40;99.90
9980;DHT22;5030;51.532;6.766;2022-11-04T07:06:29;9.50;99.90
9980;DHT22;5030;51.532;6.766;2022-11-04T07:08:57;9.60;99.90
9980;DHT22;5030;51.532;6.766;2022-11-04T07:11:24;9.50;99.90
9980;DHT22;5030;51.532;6.766;2022-11-04T07:13:50;9.50;99.90
9980;DHT22;5030;51.532;6.766;2022-11-04T07:16:16;9.50;99.90
9980;DHT22;5030;51.532;6.766;2022-11-04T07:18:42;9.60;99.90
9980;DHT22;5030;51.532;6.766;2022-11-04T07:21:09;9.80;99.90
9980;DHT22;5030;51.532;6.766;2022-11-04T07:23:35;9.80;99.90
9980;DHT22;5030;51.532;6.766;2022-11-04T07:26:02;9.80;99.90
9980;DHT22;5030;51.532;6.766;2022-11-04T07:28:28;9.80;99.90
9980;DHT22;5030;51.532;6.766;2022-11-04T07:30:56;9.80;99.90
9980;DHT22;5030;51.532;6.766;2022-11-04T07:33:22;10.00;99.90
9980;DHT22;5030;51.532;6.766;2022-11-04T07:35:48;10.20;99.90
9980;DHT22;5030;51.532;6.766;2022-11-04T07:38:14;10.30;99.90
9980;DHT22;5030;51.532;6.766;2022-11-04T07:40:39;10.10;99.90
9980;DHT22;5030;51.532;6.766;2022-11-04T07:43:05;10.20;99.90
9980;DHT22;5030;51.532;6.766;2022-11-04T07:45:31;10.20;99.90
9980;DHT22;5030;51.532;6.766;2022-11-04T07:47:57;10.40;99.90
9980;DHT22;5030;51.532;6.766;2022-11-04T07:50:23;10.30;99.90
9980;DHT22;5030;51.532;6.766;2022-11-04T07:52:49;10.30;99.90
9980;DHT22;5030;51.532;6.766;2022-11-04T07:55:16;10.40;99.90
9980;DHT22;5030;51.532;6.766;2022-11-04T07:57:46;10.50;99.90
9980;DHT22;5030;51.532;6.766;2022-11-04T08:00:13;10.50;99.90
9980;DHT22;5030;51.532;6.766;2022-11-04T08:02:40;10.50;99.90
9980;DHT22;5030;51.532;6.766;2022-11-04T08:05:07;10.50;99.90
9980;DHT22;5030;51.532;6.766;2022-11-04T08:07:32;10.50;99.90
9980;DHT22;5030;51.532;6.766;2022-11-04T08:09:58;10.50;99.90
9980;DHT22;5030;51.532;6.766;2022-11-04T08:12:24;10.50;99.90
9980;DHT22;5030;51.532;6.766;2022-11-04T08:14:50;10.60;99.90
9980;DHT22;5030;51.532;6.766;2022-11-04T08:17:16;10.70;99.90
9980;DHT22;5030;51.532;6.766;2022-11-04T08:19:42;10.70;99.90
9980;DHT22;5030;51.532;6.766;2022-11-04T08:22:08;10.70;99.90
9980;DHT22;5030;51.532;6.766;2022-11-04T08:24:34;10.70;99.90
9980;DHT22;5030;51.532;6.766;2022-11-04T08:27:00;10.70;99.90
9980;DHT22;5030;51.532;6.766;2022-11-04T08:29:26;10.60;99.90
9980;DHT22;5030;51.532;6.766;2022-11-04T08:31:51;10.60;99.90
9980;DHT22;5030;51.532;6.766;2022-11-04T08:34:17;10.60;99.90
9980;DHT22;5030;51.532;6.766;2022-11-04T08:36:44;10.50;99.90
9980;DHT22;5030;51.532;6.766;2022-11-04T08:39:10;10.50;99.90
9980;DHT22;5030;51.532;6.766;2022-11-04T08:41:38;10.50;99.90
9980;DHT22;5030;51.532;6.766;2022-11-04T08:44:05;10.60;99.90
9980;DHT22;5030;51.532;6.766;2022-11-04T08:46:37;10.70;99.90
9980;DHT22;5030;51.532;6.766;2022-11-04T08:49:03;10.70;99.90
9980;DHT22;5030;51.532;6.766;2022-11-04T08:51:31;10.80;99.90
9980;DHT22;5030;51.532;6.766;2022-11-04T08:53:58;10.70;99.90
9980;DHT22;5030;51.532;6.766;2022-11-04T08:56:29;10.80;99.90
9980;DHT22;5030;51.532;6.766;2022-11-04T08:58:56;10.90;99.90
9980;DHT22;5030;51.532;6.766;2022-11-04T09:01:27;11.00;99.90
9980;DHT22;5030;51.532;6.766;2022-11-04T09:03:53;11.10;99.90
9980;DHT22;5030;51.532;6.766;2022-11-04T09:06:23;11.30;99.90
9980;DHT22;5030;51.532;6.766;2022-11-04T09:08:49;11.50;99.90
9980;DHT22;5030;51.532;6.766;2022-11-04T09:11:16;11.60;99.90
9980;DHT22;5030;51.532;6.766;2022-11-04T09:13:42;11.70;99.90
9980;DHT22;5030;51.532;6.766;2022-11-04T09:16:10;11.80;99.90
9980;DHT22;5030;51.532;6.766;2022-11-04T09:18:36;11.60;99.90
9980;DHT22;5030;51.532;6.766;2022-11-04T09:21:03;11.60;99.90
9980;DHT22;5030;51.532;6.766;2022-11-04T09:23:30;11.40;99.90
9980;DHT22;5030;51.532;6.766;2022-11-04T09:25:56;11.50;99.90
9980;DHT22;5030;51.532;6.766;2022-11-04T09:28:23;11.50;99.90
9980;DHT22;5030;51.532;6.766;2022-11-04T09:30:49;11.50;99.90
9980;DHT22;5030;51.532;6.766;2022-11-04T09:33:16;11.50;99.90
9980;DHT22;5030;51.532;6.766;2022-11-04T09:35:42;11.60;99.90
9980;DHT22;5030;51.532;6.766;2022-11-04T09:38:07;11.70;99.90
9980;DHT22;5030;51.532;6.766;2022-11-04T09:40:34;11.60;99.90
9980;DHT22;5030;51.532;6.766;2022-11-04T09:43:31;11.60;99.90
9980;DHT22;5030;51.532;6.766;2022-11-04T09:46:02;11.70;99.90
9980;DHT22;5030;51.532;6.766;2022-11-04T09:49:07;11.70;99.90
9980;DHT22;5030;51.532;6.766;2022-11-04T09:51:26;11.50;99.90
9980;DHT22;5030;51.532;6.766;2022-11-04T09:53:57;11.60;99.90
9980;DHT22;5030;51.532;6.766;2022-11-04T09:56:44;11.80;99.90
9980;DHT22;5030;51.532;6.766;2022-11-04T09:59:16;11.60;99.90
9980;DHT22;5030;51.532;6.766;2022-11-04T10:01:47;11.60;99.90
9980;DHT22;5030;51.532;6.766;2022-11-04T10:27:16;11.70;99.90
9980;DHT22;5030;51.532;6.766;2022-11-04T10:29:51;12.00;99.90
9980;DHT22;5030;51.532;6.766;2022-11-04T10:32:26;12.10;99.90
9980;DHT22;5030;51.532;6.766;2022-11-04T10:35:05;12.30;99.90
9980;DHT22;5030;51.532;6.766;2022-11-04T10:37:34;12.50;99.90
9980;DHT22;5030;51.532;6.766;2022-11-04T10:40:20;12.80;99.90
9980;DHT22;5030;51.532;6.766;2022-11-04T10:42:47;12.60;99.90
9980;DHT22;5030;51.532;6.766;2022-11-04T10:45:14;12.50;99.90
9980;DHT22;5030;51.532;6.766;2022-11-04T10:47:50;12.50;99.90
9980;DHT22;5030;51.532;6.766;2022-11-04T10:53:14;12.40;99.90
9980;DHT22;5030;51.532;6.766;2022-11-04T10:58:30;12.20;99.90
9980;DHT22;5030;51.532;6.766;2022-11-04T11:00:56;12.30;99.90
9980;DHT22;5030;51.532;6.766;2022-11-04T11:03:30;12.10;99.90
9980;DHT22;5030;51.532;6.766;2022-11-04T11:06:26;12.20;99.90
9980;DHT22;5030;51.532;6.766;2022-11-04T11:08:56;12.30;99.90
9980;DHT22;5030;51.532;6.766;2022-11-04T11:11:44;12.30;99.90
9980;DHT22;5030;51.532;6.766;2022-11-04T11:16:45;12.10;99.90
9980;DHT22;5030;51.532;6.766;2022-11-04T11:19:20;12.30;99.90
9980;DHT22;5030;51.532;6.766;2022-11-04T11:21:50;12.30;99.90
9980;DHT22;5030;51.532;6.766;2022-11-04T11:24:25;12.30;99.90
9980;DHT22;5030;51.532;6.766;2022-11-04T11:26:54;12.30;99.90
9980;DHT22;5030;51.532;6.766;2022-11-04T11:31:50;12.20;99.90
9980;DHT22;5030;51.532;6.766;2022-11-04T11:34:28;12.40;99.90
9980;DHT22;5030;51.532;6.766;2022-11-04T11:36:56;12.50;99.90
9980;DHT22;5030;51.532;6.766;2022-11-04T11:39:25;12.60;99.90
9980;DHT22;5030;51.532;6.766;2022-11-04T11:41:59;12.80;99.90
9980;DHT22;5030;51.532;6.766;2022-11-04T11:47:06;12.60;99.90
9980;DHT22;5030;51.532;6.766;2022-11-04T11:49:37;12.60;99.90
9980;DHT22;5030;51.532;6.766;2022-11-04T11:54:50;12.70;99.90
9980;DHT22;5030;51.532;6.766;2022-11-04T12:00:05;12.90;99.90
9980;DHT22;5030;51.532;6.766;2022-11-04T12:03:04;12.90;99.90
9980;DHT22;5030;51.532;6.766;2022-11-04T12:05:49;13.00;99.90
9980;DHT22;5030;51.532;6.766;2022-11-04T12:08:38;12.80;99.90
9980;DHT22;5030;51.532;6.766;2022-11-04T12:11:15;12.70;99.90
9980;DHT22;5030;51.532;6.766;2022-11-04T12:14:08;12.80;99.90
9980;DHT22;5030;51.532;6.766;2022-11-04T12:16:57;13.10;99.90
9980;DHT22;5030;51.532;6.766;2022-11-04T12:19:55;13.00;99.90
9980;DHT22;5030;51.532;6.766;2022-11-04T12:27:40;12.80;99.90
9980;DHT22;5030;51.532;6.766;2022-11-04T12:30:13;12.80;99.90
9980;DHT22;5030;51.532;6.766;2022-11-04T12:36:08;13.00;99.90
9980;DHT22;5030;51.532;6.766;2022-11-04T12:41:27;12.70;99.90
9980;DHT22;5030;51.532;6.766;2022-11-04T12:44:32;12.80;99.90
9980;DHT22;5030;51.532;6.766;2022-11-04T13:00:33;12.50;99.90
9980;DHT22;5030;51.532;6.766;2022-11-04T13:05:52;12.40;99.90
9980;DHT22;5030;51.532;6.766;2022-11-04T13:08:30;12.30;99.90
9980;DHT22;5030;51.532;6.766;2022-11-04T13:11:17;12.00;99.90
9980;DHT22;5030;51.532;6.766;2022-11-04T13:14:12;11.80;99.90
9980;DHT22;5030;51.532;6.766;2022-11-04T13:16:42;11.80;99.90
9980;DHT22;5030;51.532;6.766;2022-11-04T13:19:41;11.70;99.90
9980;DHT22;5030;51.532;6.766;2022-11-04T13:22:17;11.60;99.90
9980;DHT22;5030;51.532;6.766;2022-11-04T13:24:54;11.40;99.90
9980;DHT22;5030;51.532;6.766;2022-11-04T13:27:25;11.30;99.90
9980;DHT22;5030;51.532;6.766;2022-11-04T13:32:37;11.80;99.90
9980;DHT22;5030;51.532;6.766;2022-11-04T13:35:16;12.20;99.90
9980;DHT22;5030;51.532;6.766;2022-11-04T13:37:57;12.60;99.90
9980;DHT22;5030;51.532;6.766;2022-11-04T13:40:27;12.90;99.90
9980;DHT22;5030;51.532;6.766;2022-11-04T13:46:01;13.40;99.90
9980;DHT22;5030;51.532;6.766;2022-11-04T13:48:30;13.50;95.30
9980;DHT22;5030;51.532;6.766;2022-11-04T13:51:06;13.70;99.30
9980;DHT22;5030;51.532;6.766;2022-11-04T13:53:52;13.70;95.40
9980;DHT22;5030;51.532;6.766;2022-11-04T13:56:36;13.80;93.30
9980;DHT22;5030;51.532;6.766;2022-11-04T13:59:25;13.70;92.70
9980;DHT22;5030;51.532;6.766;2022-11-04T14:04:41;13.70;93.10
9980;DHT22;5030;51.532;6.766;2022-11-04T14:07:08;14.00;92.60
9980;DHT22;5030;51.532;6.766;2022-11-04T14:15:09;14.40;92.00
9980;DHT22;5030;51.532;6.766;2022-11-04T14:25:30;14.30;93.80
9980;DHT22;5030;51.532;6.766;2022-11-04T14:39:01;12.90;99.90
9980;DHT22;5030;51.532;6.766;2022-11-04T14:43:54;12.90;99.90
9980;DHT22;5030;51.532;6.766;2022-11-04T14:46:27;12.70;99.90
9980;DHT22;5030;51.532;6.766;2022-11-04T14:48:56;12.70;99.90
9980;DHT22;5030;51.532;6.766;2022-11-04T14:51:30;12.70;99.90
9980;DHT22;5030;51.532;6.766;2022-11-04T14:54:05;12.60;99.90
9980;DHT22;5030;51.532;6.766;2022-11-04T14:56:33;12.70;99.90
9980;DHT22;5030;51.532;6.766;2022-11-04T14:59:03;12.50;99.90
9980;DHT22;5030;51.532;6.766;2022-11-04T15:01:38;12.60;99.90
9980;DHT22;5030;51.532;6.766;2022-11-04T15:04:17;12.60;99.90
9980;DHT22;5030;51.532;6.766;2022-11-04T15:06:53;12.50;99.90
9980;DHT22;5030;51.532;6.766;2022-11-04T15:09:26;12.40;99.90
9980;DHT22;5030;51.532;6.766;2022-11-04T15:12:13;12.30;99.90
9980;DHT22;5030;51.532;6.766;2022-11-04T15:14:58;12.20;99.90
9980;DHT22;5030;51.532;6.766;2022-11-04T15:17:27;12.10;99.90
9980;DHT22;5030;51.532;6.766;2022-11-04T15:19:55;12.10;99.90
9980;DHT22;5030;51.532;6.766;2022-11-04T15:22:22;12.20;99.90
9980;DHT22;5030;51.532;6.766;2022-11-04T15:24:49;12.10;99.90
9980;DHT22;5030;51.532;6.766;2022-11-04T15:27:21;11.90;99.90
9980;DHT22;5030;51.532;6.766;2022-11-04T15:29:59;12.00;99.90
9980;DHT22;5030;51.532;6.766;2022-11-04T15:32:25;12.00;99.90
9980;DHT22;5030;51.532;6.766;2022-11-04T15:34:53;11.80;99.90
9980;DHT22;5030;51.532;6.766;2022-11-04T15:37:21;11.50;99.90
9980;DHT22;5030;51.532;6.766;2022-11-04T15:39:51;11.40;99.90
9980;DHT22;5030;51.532;6.766;2022-11-04T15:42:22;11.30;99.90
9980;DHT22;5030;51.532;6.766;2022-11-04T15:48:28;11.20;99.90
9980;DHT22;5030;51.532;6.766;2022-11-04T15:51:19;11.00;99.90
9980;DHT22;5030;51.532;6.766;2022-11-04T15:54:04;10.80;99.90
9980;DHT22;5030;51.532;6.766;2022-11-04T15:56:40;10.70;99.90
9980;DHT22;5030;51.532;6.766;2022-11-04T15:59:10;10.60;99.90
9980;DHT22;5030;51.532;6.766;2022-11-04T16:01:46;10.50;99.90
9980;DHT22;5030;51.532;6.766;2022-11-04T16:04:14;10.30;99.90
9980;DHT22;5030;51.532;6.766;2022-11-04T16:06:42;10.20;99.90
9980;DHT22;5030;51.532;6.766;2022-11-04T16:11:35;10.10;99.90
9980;DHT22;5030;51.532;6.766;2022-11-04T16:14:21;10.00;99.90
9980;DHT22;5030;51.532;6.766;2022-11-04T16:16:50;9.80;99.90
9980;DHT22;5030;51.532;6.766;2022-11-04T16:19:18;9.70;99.90
9980;DHT22;5030;51.532;6.766;2022-11-04T16:21:46;9.60;99.90
9980;DHT22;5030;51.532;6.766;2022-11-04T16:24:24;9.50;99.90
9980;DHT22;5030;51.532;6.766;2022-11-04T16:26:54;9.40;99.90
9980;DHT22;5030;51.532;6.766;2022-11-04T16:29:23;9.20;99.90
9980;DHT22;5030;51.532;6.766;2022-11-04T16:34:39;9.00;99.90
9980;DHT22;5030;51.532;6.766;2022-11-04T16:37:04;8.90;99.90
9980;DHT22;5030;51.532;6.766;2022-11-04T16:39:30;8.90;99.90
9980;DHT22;5030;51.532;6.766;2022-11-04T16:41:57;8.90;99.90
9980;DHT22;5030;51.532;6.766;2022-11-04T16:44:23;8.80;99.90
9980;DHT22;5030;51.532;6.766;2022-11-04T16:46:49;8.60;99.90
9980;DHT22;5030;51.532;6.766;2022-11-04T16:49:17;8.60;99.90
9980;DHT22;5030;51.532;6.766;2022-11-04T16:51:44;8.70;99.90
9980;DHT22;5030;51.532;6.766;2022-11-04T16:54:10;8.60;99.90
9980;DHT22;5030;51.532;6.766;2022-11-04T16:56:37;8.60;99.90
9980;DHT22;5030;51.532;6.766;2022-11-04T16:59:03;8.60;99.90
9980;DHT22;5030;51.532;6.766;2022-11-04T17:01:29;8.50;99.90
9980;DHT22;5030;51.532;6.766;2022-11-04T17:03:56;8.50;99.90
9980;DHT22;5030;51.532;6.766;2022-11-04T17:06:22;8.50;99.90
9980;DHT22;5030;51.532;6.766;2022-11-04T17:08:47;8.60;99.90
9980;DHT22;5030;51.532;6.766;2022-11-04T17:11:13;8.60;99.90
9980;DHT22;5030;51.532;6.766;2022-11-04T17:13:39;8.60;99.90
9980;DHT22;5030;51.532;6.766;2022-11-04T17:16:06;8.70;99.90
9980;DHT22;5030;51.532;6.766;2022-11-04T17:18:34;8.80;99.90
9980;DHT22;5030;51.532;6.766;2022-11-04T17:21:07;8.80;99.90
9980;DHT22;5030;51.532;6.766;2022-11-04T17:23:34;8.70;99.90
9980;DHT22;5030;51.532;6.766;2022-11-04T17:25:59;8.80;99.90
9980;DHT22;5030;51.532;6.766;2022-11-04T17:28:25;8.80;99.90
9980;DHT22;5030;51.532;6.766;2022-11-04T17:30:51;8.70;99.90
9980;DHT22;5030;51.532;6.766;2022-11-04T17:33:18;8.70;99.90
9980;DHT22;5030;51.532;6.766;2022-11-04T17:35:48;8.70;99.90
9980;DHT22;5030;51.532;6.766;2022-11-04T17:38:16;8.60;99.90
9980;DHT22;5030;51.532;6.766;2022-11-04T17:40:42;8.60;99.90
9980;DHT22;5030;51.532;6.766;2022-11-04T17:43:40;8.60;99.90
9980;DHT22;5030;51.532;6.766;2022-11-04T17:46:25;8.50;99.90
9980;DHT22;5030;51.532;6.766;2022-11-04T17:49:17;8.70;99.90
9980;DHT22;5030;51.532;6.766;2022-11-04T17:51:54;9.00;99.90
9980;DHT22;5030;51.532;6.766;2022-11-04T17:54:23;8.80;99.90
9980;DHT22;5030;51.532;6.766;2022-11-04T17:56:52;8.70;99.90
9980;DHT22;5030;51.532;6.766;2022-11-04T17:59:19;8.60;99.90
9980;DHT22;5030;51.532;6.766;2022-11-04T18:01:45;8.50;99.90
9980;DHT22;5030;51.532;6.766;2022-11-04T18:04:13;8.50;99.90
9980;DHT22;5030;51.532;6.766;2022-11-04T18:06:39;8.50;99.90
9980;DHT22;5030;51.532;6.766;2022-11-04T18:09:07;8.50;99.90
9980;DHT22;5030;51.532;6.766;2022-11-04T18:11:35;8.60;99.90
9980;DHT22;5030;51.532;6.766;2022-11-04T18:14:37;8.60;99.90
9980;DHT22;5030;51.532;6.766;2022-11-04T18:17:02;8.70;99.90
9980;DHT22;5030;51.532;6.766;2022-11-04T18:19:29;8.70;99.90
9980;DHT22;5030;51.532;6.766;2022-11-04T18:21:55;8.80;99.90
9980;DHT22;5030;51.532;6.766;2022-11-04T18:24:21;8.80;99.90
9980;DHT22;5030;51.532;6.766;2022-11-04T18:26:47;8.80;99.90
9980;DHT22;5030;51.532;6.766;2022-11-04T18:29:12;8.90;99.90
9980;DHT22;5030;51.532;6.766;2022-11-04T18:31:40;8.90;99.90
9980;DHT22;5030;51.532;6.766;2022-11-04T18:34:07;8.90;99.90
9980;DHT22;5030;51.532;6.766;2022-11-04T18:36:35;9.00;99.90
9980;DHT22;5030;51.532;6.766;2022-11-04T18:39:06;9.00;99.90
9980;DHT22;5030;51.532;6.766;2022-11-04T18:41:34;9.00;99.90
9980;DHT22;5030;51.532;6.766;2022-11-04T18:43:59;9.00;99.90
9980;DHT22;5030;51.532;6.766;2022-11-04T18:46:28;9.00;99.90
9980;DHT22;5030;51.532;6.766;2022-11-04T18:48:54;9.00;99.90
9980;DHT22;5030;51.532;6.766;2022-11-04T18:51:22;9.10;99.90
9980;DHT22;5030;51.532;6.766;2022-11-04T18:53:49;9.40;99.90
9980;DHT22;5030;51.532;6.766;2022-11-04T18:56:17;9.40;99.90
9980;DHT22;5030;51.532;6.766;2022-11-04T18:58:43;9.40;99.90
9980;DHT22;5030;51.532;6.766;2022-11-04T19:03:42;9.20;99.90
9980;DHT22;5030;51.532;6.766;2022-11-04T19:06:11;9.20;99.90
9980;DHT22;5030;51.532;6.766;2022-11-04T19:08:37;9.20;99.90
9980;DHT22;5030;51.532;6.766;2022-11-04T19:11:24;9.10;99.90